Boulder, CO

10:58 AM MST on February 23, 2017 (GMT -0700)
63rd St and Jay Rd | | Change Station

Elev 5202 ft 40.06 °N, 105.21 °W | Updated 2 seconds ago

Light Snow
Light Snow
31.8 °F
Feels Like 32 °F
N
2.0
Wind Variable Wind from NNE
Gusts 4.0 mph

Today
High -- | Low -- °F
--% Chance of Precip.
Yesterday
High -- | Low -- °F
Precip. -- in
Pressure 29.55 in
Visibility 0.8 miles
Clouds Scattered Clouds 300 ft
Overcast 700 ft
Windchill 32 °F
Dew Point 29 °F
Humidity 88%
Rainfall 0.00 in
Snow Depth Not available.
6:42 AM 5:46 PM
Waning Crescent, 9% visible
METAR KBDU 231756Z AUTO 33003KT 3/4SM -SN SCT003 OVC007 00/M01 A2955 RMK AO2 P0001
Pressure 29.55 in
Visibility 0.8 miles
Clouds Scattered Clouds 300 ft
Overcast 700 ft
Windchill 32 °F
Dew Point 29 °F
Humidity 88%
Rainfall 0.00 in
Snow Depth Not available.
6:42 AM 5:46 PM
Waning Crescent, 9% visible
METAR KBDU 231756Z AUTO 33003KT 3/4SM -SN SCT003 OVC007 00/M01 A2955 RMK AO2 P0001

Get Your Daily Forecast Email!

Thanks for signing up!

Be on the lookout for a verification email in your inbox.

You'll start receiving the daily forecast at 8 AM.

×

10-Day Weather Forecast

Almanac

Astronomy

Feb. 23, 2017 Rise Set
Actual Time
Civil Twilight
Nautical Twilight
Astronomical Twilight
Moon
Length of Visible Light
Length of Day
Tomorrow will be .
, % of the Moon is Illuminated

Today's Extremes

State Highs State Lows

Community

WunderPhotos

Upload Photos

1,962,540 photos uploaded!

WunderBlog® & News

Nearby

Air Quality

  Air Quality AQ Index Pollutant
Not available.

Snow Depth

Station Depth Elevation

Earthquake Activity

City Distance Mag. Time & Date
Minimum magnitude displayed is 2.5.

Coastal Water Temperatures

Place Temperature

Stations

Nearby Weather Stations

Station Location Temp. Windchill Dew Point Humidity Wind Precip. Elev Updated Type
                   

Watches & Warnings

There are currently no watches in effect.